sensor_id;sensor_type;location;lat;lon;timestamp;temperature;humidity
45549;DHT22;31270;48.328;10.096;2023-05-07T00:01:59;13.20;99.90
45549;DHT22;31270;48.328;10.096;2023-05-07T00:04:25;13.20;99.90
45549;DHT22;31270;48.328;10.096;2023-05-07T00:06:51;13.10;99.90
45549;DHT22;31270;48.328;10.096;2023-05-07T00:09:17;13.10;99.90
45549;DHT22;31270;48.328;10.096;2023-05-07T00:11:42;13.10;99.90
45549;DHT22;31270;48.328;10.096;2023-05-07T00:14:08;13.00;99.90
45549;DHT22;31270;48.328;10.096;2023-05-07T00:16:35;12.90;99.90
45549;DHT22;31270;48.328;10.096;2023-05-07T00:19:01;12.80;99.90
45549;DHT22;31270;48.328;10.096;2023-05-07T00:21:27;12.80;99.90
45549;DHT22;31270;48.328;10.096;2023-05-07T00:23:53;12.70;99.90
45549;DHT22;31270;48.328;10.096;2023-05-07T00:26:19;12.70;99.90
45549;DHT22;31270;48.328;10.096;2023-05-07T00:28:46;12.70;99.90
45549;DHT22;31270;48.328;10.096;2023-05-07T00:31:12;12.60;99.90
45549;DHT22;31270;48.328;10.096;2023-05-07T00:33:38;12.50;99.90
45549;DHT22;31270;48.328;10.096;2023-05-07T00:36:04;12.50;99.90
45549;DHT22;31270;48.328;10.096;2023-05-07T00:38:30;12.50;99.90
45549;DHT22;31270;48.328;10.096;2023-05-07T00:40:56;12.50;99.90
45549;DHT22;31270;48.328;10.096;2023-05-07T00:43:22;12.50;99.90
45549;DHT22;31270;48.328;10.096;2023-05-07T00:45:48;12.50;99.90
45549;DHT22;31270;48.328;10.096;2023-05-07T00:48:14;12.40;99.90
45549;DHT22;31270;48.328;10.096;2023-05-07T00:50:40;12.40;99.90
45549;DHT22;31270;48.328;10.096;2023-05-07T00:53:06;12.40;99.90
45549;DHT22;31270;48.328;10.096;2023-05-07T00:55:32;12.30;99.90
45549;DHT22;31270;48.328;10.096;2023-05-07T00:57:58;12.30;99.90
45549;DHT22;31270;48.328;10.096;2023-05-07T01:00:24;12.30;99.90
45549;DHT22;31270;48.328;10.096;2023-05-07T01:02:51;12.20;99.90
45549;DHT22;31270;48.328;10.096;2023-05-07T01:05:18;12.30;99.90
45549;DHT22;31270;48.328;10.096;2023-05-07T01:07:45;12.20;99.90
45549;DHT22;31270;48.328;10.096;2023-05-07T01:10:11;12.20;99.90
45549;DHT22;31270;48.328;10.096;2023-05-07T01:12:39;12.20;99.90
45549;DHT22;31270;48.328;10.096;2023-05-07T01:15:07;12.20;99.90
45549;DHT22;31270;48.328;10.096;2023-05-07T01:17:35;12.10;99.90
45549;DHT22;31270;48.328;10.096;2023-05-07T01:20:01;12.20;99.90
45549;DHT22;31270;48.328;10.096;2023-05-07T01:22:34;12.10;99.90
45549;DHT22;31270;48.328;10.096;2023-05-07T01:25:02;12.00;99.90
45549;DHT22;31270;48.328;10.096;2023-05-07T01:27:28;12.00;99.90
45549;DHT22;31270;48.328;10.096;2023-05-07T01:29:55;12.10;99.90
45549;DHT22;31270;48.328;10.096;2023-05-07T01:32:32;12.00;99.90
45549;DHT22;31270;48.328;10.096;2023-05-07T01:35:00;11.90;99.90
45549;DHT22;31270;48.328;10.096;2023-05-07T01:37:26;11.80;99.90
45549;DHT22;31270;48.328;10.096;2023-05-07T01:39:52;11.80;99.90
45549;DHT22;31270;48.328;10.096;2023-05-07T01:42:19;11.80;99.90
45549;DHT22;31270;48.328;10.096;2023-05-07T01:44:45;11.90;99.90
45549;DHT22;31270;48.328;10.096;2023-05-07T01:47:11;11.90;99.90
45549;DHT22;31270;48.328;10.096;2023-05-07T01:49:38;11.90;99.90
45549;DHT22;31270;48.328;10.096;2023-05-07T01:52:04;11.90;99.90
45549;DHT22;31270;48.328;10.096;2023-05-07T01:54:30;11.90;99.90
45549;DHT22;31270;48.328;10.096;2023-05-07T01:56:57;11.90;99.90
45549;DHT22;31270;48.328;10.096;2023-05-07T01:59:23;12.00;99.90
45549;DHT22;31270;48.328;10.096;2023-05-07T02:01:48;11.90;99.90
45549;DHT22;31270;48.328;10.096;2023-05-07T02:04:14;12.00;99.90
45549;DHT22;31270;48.328;10.096;2023-05-07T02:06:40;11.90;99.90
45549;DHT22;31270;48.328;10.096;2023-05-07T02:09:05;11.90;99.90
45549;DHT22;31270;48.328;10.096;2023-05-07T02:11:31;12.00;99.90
45549;DHT22;31270;48.328;10.096;2023-05-07T02:13:57;12.00;99.90
45549;DHT22;31270;48.328;10.096;2023-05-07T02:16:23;11.80;99.90
45549;DHT22;31270;48.328;10.096;2023-05-07T02:18:49;11.80;99.90
45549;DHT22;31270;48.328;10.096;2023-05-07T02:21:15;11.80;99.90
45549;DHT22;31270;48.328;10.096;2023-05-07T02:23:40;11.70;99.90
45549;DHT22;31270;48.328;10.096;2023-05-07T02:26:06;11.70;99.90
45549;DHT22;31270;48.328;10.096;2023-05-07T02:28:32;11.70;99.90
45549;DHT22;31270;48.328;10.096;2023-05-07T02:31:02;11.80;99.90
45549;DHT22;31270;48.328;10.096;2023-05-07T02:33:27;11.70;99.90
45549;DHT22;31270;48.328;10.096;2023-05-07T02:35:53;11.70;99.90
45549;DHT22;31270;48.328;10.096;2023-05-07T02:38:19;11.70;99.90
45549;DHT22;31270;48.328;10.096;2023-05-07T02:40:44;11.70;99.90
45549;DHT22;31270;48.328;10.096;2023-05-07T02:43:10;11.70;99.90
45549;DHT22;31270;48.328;10.096;2023-05-07T02:45:35;11.70;99.90
45549;DHT22;31270;48.328;10.096;2023-05-07T02:48:03;11.60;99.90
45549;DHT22;31270;48.328;10.096;2023-05-07T02:50:29;11.60;99.90
45549;DHT22;31270;48.328;10.096;2023-05-07T02:52:55;11.60;99.90
45549;DHT22;31270;48.328;10.096;2023-05-07T02:55:22;11.50;99.90
45549;DHT22;31270;48.328;10.096;2023-05-07T02:57:47;11.50;99.90
45549;DHT22;31270;48.328;10.096;2023-05-07T03:00:15;11.40;99.90
45549;DHT22;31270;48.328;10.096;2023-05-07T03:02:41;11.40;99.90
45549;DHT22;31270;48.328;10.096;2023-05-07T03:05:07;11.40;99.90
45549;DHT22;31270;48.328;10.096;2023-05-07T03:07:35;11.40;99.90
45549;DHT22;31270;48.328;10.096;2023-05-07T03:10:00;11.30;99.90
45549;DHT22;31270;48.328;10.096;2023-05-07T03:12:26;11.30;99.90
45549;DHT22;31270;48.328;10.096;2023-05-07T03:14:52;11.30;99.90
45549;DHT22;31270;48.328;10.096;2023-05-07T03:17:18;11.20;99.90
45549;DHT22;31270;48.328;10.096;2023-05-07T03:19:44;11.20;99.90
45549;DHT22;31270;48.328;10.096;2023-05-07T03:22:10;11.20;99.90
45549;DHT22;31270;48.328;10.096;2023-05-07T03:24:36;11.20;99.90
45549;DHT22;31270;48.328;10.096;2023-05-07T03:27:02;11.00;99.90
45549;DHT22;31270;48.328;10.096;2023-05-07T03:29:27;11.00;99.90
45549;DHT22;31270;48.328;10.096;2023-05-07T03:31:53;11.00;99.90
45549;DHT22;31270;48.328;10.096;2023-05-07T03:34:18;10.90;99.90
45549;DHT22;31270;48.328;10.096;2023-05-07T03:36:51;10.90;99.90
45549;DHT22;31270;48.328;10.096;2023-05-07T03:39:17;10.90;99.90
45549;DHT22;31270;48.328;10.096;2023-05-07T03:41:43;11.00;99.90
45549;DHT22;31270;48.328;10.096;2023-05-07T03:44:09;10.90;99.90
45549;DHT22;31270;48.328;10.096;2023-05-07T03:46:35;10.90;99.90
45549;DHT22;31270;48.328;10.096;2023-05-07T03:49:01;10.90;99.90
45549;DHT22;31270;48.328;10.096;2023-05-07T03:51:26;10.90;99.90
45549;DHT22;31270;48.328;10.096;2023-05-07T03:53:52;10.90;99.90
45549;DHT22;31270;48.328;10.096;2023-05-07T03:56:19;10.80;99.90
45549;DHT22;31270;48.328;10.096;2023-05-07T03:58:44;10.80;99.90
45549;DHT22;31270;48.328;10.096;2023-05-07T04:01:10;10.80;99.90
45549;DHT22;31270;48.328;10.096;2023-05-07T04:03:37;10.80;99.90
45549;DHT22;31270;48.328;10.096;2023-05-07T04:06:02;10.80;99.90
45549;DHT22;31270;48.328;10.096;2023-05-07T04:08:28;10.80;99.90
45549;DHT22;31270;48.328;10.096;2023-05-07T04:10:57;10.80;99.90
45549;DHT22;31270;48.328;10.096;2023-05-07T04:13:24;10.80;99.90
45549;DHT22;31270;48.328;10.096;2023-05-07T04:15:50;10.80;99.90
45549;DHT22;31270;48.328;10.096;2023-05-07T04:18:16;10.80;99.90
45549;DHT22;31270;48.328;10.096;2023-05-07T04:20:42;10.80;99.90
45549;DHT22;31270;48.328;10.096;2023-05-07T04:23:08;10.90;99.90
45549;DHT22;31270;48.328;10.096;2023-05-07T04:25:34;10.90;99.90
45549;DHT22;31270;48.328;10.096;2023-05-07T04:27:59;10.90;99.90
45549;DHT22;31270;48.328;10.096;2023-05-07T04:30:25;10.90;99.90
45549;DHT22;31270;48.328;10.096;2023-05-07T04:32:51;10.90;99.90
45549;DHT22;31270;48.328;10.096;2023-05-07T04:35:17;10.90;99.90
45549;DHT22;31270;48.328;10.096;2023-05-07T04:37:43;10.90;99.90
45549;DHT22;31270;48.328;10.096;2023-05-07T04:40:09;11.00;99.90
45549;DHT22;31270;48.328;10.096;2023-05-07T04:42:36;11.10;99.90
45549;DHT22;31270;48.328;10.096;2023-05-07T04:45:02;11.10;99.90
45549;DHT22;31270;48.328;10.096;2023-05-07T04:47:28;11.20;99.90
45549;DHT22;31270;48.328;10.096;2023-05-07T04:49:54;11.20;99.90
45549;DHT22;31270;48.328;10.096;2023-05-07T04:52:20;11.20;99.90
45549;DHT22;31270;48.328;10.096;2023-05-07T04:54:46;11.20;99.90
45549;DHT22;31270;48.328;10.096;2023-05-07T04:57:13;11.20;99.90
45549;DHT22;31270;48.328;10.096;2023-05-07T04:59:39;11.30;99.90
45549;DHT22;31270;48.328;10.096;2023-05-07T05:02:05;11.40;99.90
45549;DHT22;31270;48.328;10.096;2023-05-07T05:04:31;11.60;99.90
45549;DHT22;31270;48.328;10.096;2023-05-07T05:06:56;11.80;99.90
45549;DHT22;31270;48.328;10.096;2023-05-07T05:09:22;11.80;99.90
45549;DHT22;31270;48.328;10.096;2023-05-07T05:11:47;11.90;99.90
45549;DHT22;31270;48.328;10.096;2023-05-07T05:14:13;12.10;99.90
45549;DHT22;31270;48.328;10.096;2023-05-07T05:16:44;12.00;99.90
45549;DHT22;31270;48.328;10.096;2023-05-07T05:19:10;12.20;99.90
45549;DHT22;31270;48.328;10.096;2023-05-07T05:21:36;12.10;99.90
45549;DHT22;31270;48.328;10.096;2023-05-07T05:24:01;12.10;99.90
45549;DHT22;31270;48.328;10.096;2023-05-07T05:26:27;12.30;99.90
45549;DHT22;31270;48.328;10.096;2023-05-07T05:28:53;12.50;99.90
45549;DHT22;31270;48.328;10.096;2023-05-07T05:31:19;12.60;99.90
45549;DHT22;31270;48.328;10.096;2023-05-07T05:33:44;12.80;99.90
45549;DHT22;31270;48.328;10.096;2023-05-07T05:36:11;13.00;99.90
45549;DHT22;31270;48.328;10.096;2023-05-07T05:38:38;13.10;99.90
45549;DHT22;31270;48.328;10.096;2023-05-07T05:41:04;13.30;99.90
45549;DHT22;31270;48.328;10.096;2023-05-07T05:43:30;13.50;99.90
45549;DHT22;31270;48.328;10.096;2023-05-07T05:45:56;13.60;99.90
45549;DHT22;31270;48.328;10.096;2023-05-07T05:48:22;13.70;99.90
45549;DHT22;31270;48.328;10.096;2023-05-07T05:50:48;13.90;99.90
45549;DHT22;31270;48.328;10.096;2023-05-07T05:53:14;14.00;99.90
45549;DHT22;31270;48.328;10.096;2023-05-07T05:55:41;14.20;99.90
45549;DHT22;31270;48.328;10.096;2023-05-07T05:58:09;14.30;99.90
45549;DHT22;31270;48.328;10.096;2023-05-07T06:00:35;14.40;99.90
45549;DHT22;31270;48.328;10.096;2023-05-07T06:03:01;14.60;99.90
45549;DHT22;31270;48.328;10.096;2023-05-07T06:05:26;14.70;99.90
45549;DHT22;31270;48.328;10.096;2023-05-07T06:07:52;14.80;99.90
45549;DHT22;31270;48.328;10.096;2023-05-07T06:10:18;14.90;99.90
45549;DHT22;31270;48.328;10.096;2023-05-07T06:12:44;15.20;99.90
45549;DHT22;31270;48.328;10.096;2023-05-07T06:15:10;15.20;99.90
45549;DHT22;31270;48.328;10.096;2023-05-07T06:17:36;15.20;99.90
45549;DHT22;31270;48.328;10.096;2023-05-07T06:20:01;15.30;99.90
45549;DHT22;31270;48.328;10.096;2023-05-07T06:22:27;15.40;99.90
45549;DHT22;31270;48.328;10.096;2023-05-07T06:24:52;15.40;99.90
45549;DHT22;31270;48.328;10.096;2023-05-07T06:27:18;15.60;99.90
45549;DHT22;31270;48.328;10.096;2023-05-07T06:29:44;15.70;99.90
45549;DHT22;31270;48.328;10.096;2023-05-07T06:32:11;15.90;99.90
45549;DHT22;31270;48.328;10.096;2023-05-07T06:34:37;16.10;99.90
45549;DHT22;31270;48.328;10.096;2023-05-07T06:37:03;16.20;99.90
45549;DHT22;31270;48.328;10.096;2023-05-07T06:39:29;16.30;99.90
45549;DHT22;31270;48.328;10.096;2023-05-07T06:41:56;16.60;99.90
45549;DHT22;31270;48.328;10.096;2023-05-07T06:44:22;16.70;99.90
45549;DHT22;31270;48.328;10.096;2023-05-07T06:46:48;16.90;99.90
45549;DHT22;31270;48.328;10.096;2023-05-07T06:49:13;16.90;99.90
45549;DHT22;31270;48.328;10.096;2023-05-07T06:51:40;17.00;99.90
45549;DHT22;31270;48.328;10.096;2023-05-07T06:54:06;17.20;99.90
45549;DHT22;31270;48.328;10.096;2023-05-07T06:56:32;17.30;99.90
45549;DHT22;31270;48.328;10.096;2023-05-07T06:58:59;17.50;99.90
45549;DHT22;31270;48.328;10.096;2023-05-07T07:01:25;17.50;99.90
45549;DHT22;31270;48.328;10.096;2023-05-07T07:03:51;17.60;99.90
45549;DHT22;31270;48.328;10.096;2023-05-07T07:06:18;17.70;99.90
45549;DHT22;31270;48.328;10.096;2023-05-07T07:08:43;18.00;99.90
45549;DHT22;31270;48.328;10.096;2023-05-07T07:11:10;18.10;99.90
45549;DHT22;31270;48.328;10.096;2023-05-07T07:13:35;18.20;99.90
45549;DHT22;31270;48.328;10.096;2023-05-07T07:16:01;18.30;99.90
45549;DHT22;31270;48.328;10.096;2023-05-07T07:18:26;18.40;99.90
45549;DHT22;31270;48.328;10.096;2023-05-07T07:20:52;18.60;99.90
45549;DHT22;31270;48.328;10.096;2023-05-07T07:23:18;18.80;99.90
45549;DHT22;31270;48.328;10.096;2023-05-07T07:25:44;18.90;99.90
45549;DHT22;31270;48.328;10.096;2023-05-07T07:28:10;19.20;99.90
45549;DHT22;31270;48.328;10.096;2023-05-07T07:30:37;19.20;99.90
45549;DHT22;31270;48.328;10.096;2023-05-07T07:33:03;19.40;99.90
45549;DHT22;31270;48.328;10.096;2023-05-07T07:35:29;19.70;99.90
45549;DHT22;31270;48.328;10.096;2023-05-07T07:37:55;19.90;99.90
45549;DHT22;31270;48.328;10.096;2023-05-07T07:40:22;20.00;99.90
45549;DHT22;31270;48.328;10.096;2023-05-07T07:42:48;20.30;99.90
45549;DHT22;31270;48.328;10.096;2023-05-07T07:45:13;20.30;99.90
45549;DHT22;31270;48.328;10.096;2023-05-07T07:47:39;20.20;99.90
45549;DHT22;31270;48.328;10.096;2023-05-07T07:50:06;20.30;99.90
45549;DHT22;31270;48.328;10.096;2023-05-07T07:52:33;20.30;99.90
45549;DHT22;31270;48.328;10.096;2023-05-07T07:54:59;20.10;99.90
45549;DHT22;31270;48.328;10.096;2023-05-07T07:57:24;20.10;99.90
45549;DHT22;31270;48.328;10.096;2023-05-07T07:59:50;20.20;99.90
45549;DHT22;31270;48.328;10.096;2023-05-07T08:02:16;20.30;99.90
45549;DHT22;31270;48.328;10.096;2023-05-07T08:04:42;20.30;99.90
45549;DHT22;31270;48.328;10.096;2023-05-07T08:07:12;20.30;99.90
45549;DHT22;31270;48.328;10.096;2023-05-07T08:09:38;20.40;99.90
45549;DHT22;31270;48.328;10.096;2023-05-07T08:12:05;20.50;99.90
45549;DHT22;31270;48.328;10.096;2023-05-07T08:14:31;20.50;99.90
45549;DHT22;31270;48.328;10.096;2023-05-07T08:16:57;20.70;99.90
45549;DHT22;31270;48.328;10.096;2023-05-07T08:19:22;20.80;99.90
45549;DHT22;31270;48.328;10.096;2023-05-07T08:21:48;21.00;99.90
45549;DHT22;31270;48.328;10.096;2023-05-07T08:24:15;21.00;99.90
45549;DHT22;31270;48.328;10.096;2023-05-07T08:26:41;21.10;99.90
45549;DHT22;31270;48.328;10.096;2023-05-07T08:29:06;21.10;99.90
45549;DHT22;31270;48.328;10.096;2023-05-07T08:31:33;21.10;99.90
45549;DHT22;31270;48.328;10.096;2023-05-07T08:33:59;21.00;99.90
45549;DHT22;31270;48.328;10.096;2023-05-07T08:36:25;21.20;99.90
45549;DHT22;31270;48.328;10.096;2023-05-07T08:38:51;21.30;99.90
45549;DHT22;31270;48.328;10.096;2023-05-07T08:41:17;21.70;99.90
45549;DHT22;31270;48.328;10.096;2023-05-07T08:43:48;21.70;99.90
45549;DHT22;31270;48.328;10.096;2023-05-07T08:46:18;21.80;99.90
45549;DHT22;31270;48.328;10.096;2023-05-07T08:48:45;21.90;99.90
45549;DHT22;31270;48.328;10.096;2023-05-07T08:51:13;22.40;99.90
45549;DHT22;31270;48.328;10.096;2023-05-07T08:53:41;22.10;99.90
45549;DHT22;31270;48.328;10.096;2023-05-07T08:56:08;22.40;99.90
45549;DHT22;31270;48.328;10.096;2023-05-07T08:58:34;22.30;99.90
45549;DHT22;31270;48.328;10.096;2023-05-07T09:01:08;22.40;99.90
45549;DHT22;31270;48.328;10.096;2023-05-07T09:03:36;22.60;99.90
45549;DHT22;31270;48.328;10.096;2023-05-07T09:06:02;22.70;99.90
45549;DHT22;31270;48.328;10.096;2023-05-07T09:08:28;22.70;99.90
45549;DHT22;31270;48.328;10.096;2023-05-07T09:10:53;22.90;99.90
45549;DHT22;31270;48.328;10.096;2023-05-07T09:13:20;23.00;99.90
45549;DHT22;31270;48.328;10.096;2023-05-07T09:15:46;23.20;99.90
45549;DHT22;31270;48.328;10.096;2023-05-07T09:18:14;23.20;99.90
45549;DHT22;31270;48.328;10.096;2023-05-07T09:20:40;23.40;99.90
45549;DHT22;31270;48.328;10.096;2023-05-07T09:23:07;23.90;99.90
45549;DHT22;31270;48.328;10.096;2023-05-07T09:25:34;23.80;99.90
45549;DHT22;31270;48.328;10.096;2023-05-07T09:28:01;23.70;99.90
45549;DHT22;31270;48.328;10.096;2023-05-07T09:30:29;23.60;99.90
45549;DHT22;31270;48.328;10.096;2023-05-07T09:32:55;23.70;99.90
45549;DHT22;31270;48.328;10.096;2023-05-07T09:35:22;23.40;99.90
45549;DHT22;31270;48.328;10.096;2023-05-07T09:37:50;23.30;99.90
45549;DHT22;31270;48.328;10.096;2023-05-07T09:40:27;23.20;99.90
45549;DHT22;31270;48.328;10.096;2023-05-07T09:42:53;23.30;99.90
45549;DHT22;31270;48.328;10.096;2023-05-07T09:45:28;23.20;99.90
45549;DHT22;31270;48.328;10.096;2023-05-07T09:47:56;23.50;99.90
45549;DHT22;31270;48.328;10.096;2023-05-07T09:50:30;23.70;99.90
45549;DHT22;31270;48.328;10.096;2023-05-07T09:52:58;24.10;99.90
45549;DHT22;31270;48.328;10.096;2023-05-07T09:55:25;24.00;99.90
45549;DHT22;31270;48.328;10.096;2023-05-07T09:57:52;24.10;99.90
45549;DHT22;31270;48.328;10.096;2023-05-07T10:00:19;24.60;99.90
45549;DHT22;31270;48.328;10.096;2023-05-07T10:02:51;24.80;99.90
45549;DHT22;31270;48.328;10.096;2023-05-07T10:05:18;24.70;99.90
45549;DHT22;31270;48.328;10.096;2023-05-07T10:07:46;24.90;99.90
45549;DHT22;31270;48.328;10.096;2023-05-07T10:10:12;25.40;99.90
45549;DHT22;31270;48.328;10.096;2023-05-07T10:12:38;26.00;99.90
45549;DHT22;31270;48.328;10.096;2023-05-07T10:15:11;26.20;99.90
45549;DHT22;31270;48.328;10.096;2023-05-07T10:17:39;26.30;99.90
45549;DHT22;31270;48.328;10.096;2023-05-07T10:20:05;26.60;99.90
45549;DHT22;31270;48.328;10.096;2023-05-07T10:22:38;26.30;99.90
45549;DHT22;31270;48.328;10.096;2023-05-07T10:25:09;26.30;99.90
45549;DHT22;31270;48.328;10.096;2023-05-07T10:27:40;26.10;99.90
45549;DHT22;31270;48.328;10.096;2023-05-07T10:32:48;25.90;99.90
45549;DHT22;31270;48.328;10.096;2023-05-07T10:35:23;26.10;99.90
45549;DHT22;31270;48.328;10.096;2023-05-07T10:37:50;26.30;99.90
45549;DHT22;31270;48.328;10.096;2023-05-07T10:40:16;26.70;99.90
45549;DHT22;31270;48.328;10.096;2023-05-07T10:42:58;26.70;99.90
45549;DHT22;31270;48.328;10.096;2023-05-07T10:45:28;26.50;99.90
45549;DHT22;31270;48.328;10.096;2023-05-07T10:48:14;26.30;99.90
45549;DHT22;31270;48.328;10.096;2023-05-07T10:50:41;26.70;99.90
45549;DHT22;31270;48.328;10.096;2023-05-07T10:55:49;26.50;99.90
45549;DHT22;31270;48.328;10.096;2023-05-07T11:00:48;26.20;99.90
45549;DHT22;31270;48.328;10.096;2023-05-07T11:03:15;26.20;99.90
45549;DHT22;31270;48.328;10.096;2023-05-07T11:05:41;25.60;99.90
45549;DHT22;31270;48.328;10.096;2023-05-07T11:08:08;25.60;99.90
45549;DHT22;31270;48.328;10.096;2023-05-07T11:10:54;25.50;99.90
45549;DHT22;31270;48.328;10.096;2023-05-07T11:13:42;25.10;99.90
45549;DHT22;31270;48.328;10.096;2023-05-07T11:16:18;24.60;99.90
45549;DHT22;31270;48.328;10.096;2023-05-07T11:18:52;24.70;99.90
45549;DHT22;31270;48.328;10.096;2023-05-07T11:21:39;25.10;99.90
45549;DHT22;31270;48.328;10.096;2023-05-07T11:24:07;25.60;99.90
45549;DHT22;31270;48.328;10.096;2023-05-07T11:26:49;25.60;99.90
45549;DHT22;31270;48.328;10.096;2023-05-07T11:29:19;25.70;99.90
45549;DHT22;31270;48.328;10.096;2023-05-07T11:31:55;25.50;99.90
45549;DHT22;31270;48.328;10.096;2023-05-07T11:34:22;25.10;99.90
45549;DHT22;31270;48.328;10.096;2023-05-07T11:36:48;24.80;99.90
45549;DHT22;31270;48.328;10.096;2023-05-07T11:39:33;24.40;99.90
45549;DHT22;31270;48.328;10.096;2023-05-07T11:41:59;24.60;99.90
45549;DHT22;31270;48.328;10.096;2023-05-07T11:44:38;24.50;99.90
45549;DHT22;31270;48.328;10.096;2023-05-07T11:47:04;24.30;99.90
45549;DHT22;31270;48.328;10.096;2023-05-07T11:49:31;24.60;99.90
45549;DHT22;31270;48.328;10.096;2023-05-07T11:51:56;24.40;99.90
45549;DHT22;31270;48.328;10.096;2023-05-07T11:54:22;24.30;99.90
45549;DHT22;31270;48.328;10.096;2023-05-07T11:56:49;24.60;99.90
45549;DHT22;31270;48.328;10.096;2023-05-07T11:59:17;24.60;99.90
45549;DHT22;31270;48.328;10.096;2023-05-07T12:01:45;24.90;99.90
45549;DHT22;31270;48.328;10.096;2023-05-07T12:04:12;25.00;99.90
45549;DHT22;31270;48.328;10.096;2023-05-07T12:06:38;25.20;99.90
45549;DHT22;31270;48.328;10.096;2023-05-07T12:09:04;24.80;99.90
45549;DHT22;31270;48.328;10.096;2023-05-07T12:11:32;24.60;99.90
45549;DHT22;31270;48.328;10.096;2023-05-07T12:13:58;24.50;99.90
45549;DHT22;31270;48.328;10.096;2023-05-07T12:16:23;24.50;99.90
45549;DHT22;31270;48.328;10.096;2023-05-07T12:18:50;24.50;99.90
45549;DHT22;31270;48.328;10.096;2023-05-07T12:21:18;24.70;99.90
45549;DHT22;31270;48.328;10.096;2023-05-07T12:23:44;24.70;99.90
45549;DHT22;31270;48.328;10.096;2023-05-07T12:26:11;24.80;99.90
45549;DHT22;31270;48.328;10.096;2023-05-07T12:28:38;24.60;99.90
45549;DHT22;31270;48.328;10.096;2023-05-07T12:31:05;24.60;99.90
45549;DHT22;31270;48.328;10.096;2023-05-07T12:33:31;24.50;99.90
45549;DHT22;31270;48.328;10.096;2023-05-07T12:35:58;24.50;99.90
45549;DHT22;31270;48.328;10.096;2023-05-07T12:38:39;24.40;99.90
45549;DHT22;31270;48.328;10.096;2023-05-07T12:41:07;24.40;99.90
45549;DHT22;31270;48.328;10.096;2023-05-07T12:43:33;24.40;99.90
45549;DHT22;31270;48.328;10.096;2023-05-07T12:46:07;24.50;99.90
45549;DHT22;31270;48.328;10.096;2023-05-07T12:48:33;24.70;99.90
45549;DHT22;31270;48.328;10.096;2023-05-07T12:51:02;24.60;99.90
45549;DHT22;31270;48.328;10.096;2023-05-07T12:53:29;24.60;99.90
45549;DHT22;31270;48.328;10.096;2023-05-07T12:55:57;24.50;99.90
45549;DHT22;31270;48.328;10.096;2023-05-07T13:00:51;24.50;99.90
45549;DHT22;31270;48.328;10.096;2023-05-07T13:05:49;24.40;99.90
45549;DHT22;31270;48.328;10.096;2023-05-07T13:08:27;24.30;99.90
45549;DHT22;31270;48.328;10.096;2023-05-07T13:10:53;24.00;99.90
45549;DHT22;31270;48.328;10.096;2023-05-07T13:13:19;24.00;99.90
45549;DHT22;31270;48.328;10.096;2023-05-07T13:15:47;24.00;99.90
45549;DHT22;31270;48.328;10.096;2023-05-07T13:18:12;24.00;99.90
45549;DHT22;31270;48.328;10.096;2023-05-07T13:20:38;23.90;99.90
45549;DHT22;31270;48.328;10.096;2023-05-07T13:23:03;23.70;99.90
45549;DHT22;31270;48.328;10.096;2023-05-07T13:25:30;23.70;99.90
45549;DHT22;31270;48.328;10.096;2023-05-07T13:27:59;23.60;99.90
45549;DHT22;31270;48.328;10.096;2023-05-07T13:30:25;23.70;99.90
45549;DHT22;31270;48.328;10.096;2023-05-07T13:32:53;23.50;99.90
45549;DHT22;31270;48.328;10.096;2023-05-07T13:35:19;23.60;99.90
45549;DHT22;31270;48.328;10.096;2023-05-07T13:37:45;23.70;99.90
45549;DHT22;31270;48.328;10.096;2023-05-07T13:40:11;23.60;99.90
45549;DHT22;31270;48.328;10.096;2023-05-07T13:42:37;23.60;99.90
45549;DHT22;31270;48.328;10.096;2023-05-07T13:45:03;23.50;99.90
45549;DHT22;31270;48.328;10.096;2023-05-07T13:47:31;23.40;99.90
45549;DHT22;31270;48.328;10.096;2023-05-07T13:49:56;23.50;99.90
45549;DHT22;31270;48.328;10.096;2023-05-07T13:52:22;23.40;99.90
45549;DHT22;31270;48.328;10.096;2023-05-07T13:54:48;23.30;99.90
45549;DHT22;31270;48.328;10.096;2023-05-07T13:57:14;23.20;99.90
45549;DHT22;31270;48.328;10.096;2023-05-07T13:59:41;23.30;99.90
45549;DHT22;31270;48.328;10.096;2023-05-07T14:02:06;23.40;99.90
45549;DHT22;31270;48.328;10.096;2023-05-07T14:04:32;23.30;99.90
45549;DHT22;31270;48.328;10.096;2023-05-07T14:06:57;23.30;99.90
45549;DHT22;31270;48.328;10.096;2023-05-07T14:09:23;23.40;99.90
45549;DHT22;31270;48.328;10.096;2023-05-07T14:11:49;23.50;99.90
45549;DHT22;31270;48.328;10.096;2023-05-07T14:14:17;23.40;99.90
45549;DHT22;31270;48.328;10.096;2023-05-07T14:16:43;23.40;99.90
45549;DHT22;31270;48.328;10.096;2023-05-07T14:19:08;23.40;99.90
45549;DHT22;31270;48.328;10.096;2023-05-07T14:21:34;23.30;99.90
45549;DHT22;31270;48.328;10.096;2023-05-07T14:24:00;23.10;99.90
45549;DHT22;31270;48.328;10.096;2023-05-07T14:26:26;23.20;99.90
45549;DHT22;31270;48.328;10.096;2023-05-07T14:28:53;22.90;99.90
45549;DHT22;31270;48.328;10.096;2023-05-07T14:31:20;22.90;99.90
45549;DHT22;31270;48.328;10.096;2023-05-07T14:33:46;22.80;99.90
45549;DHT22;31270;48.328;10.096;2023-05-07T14:36:12;22.80;99.90
45549;DHT22;31270;48.328;10.096;2023-05-07T14:38:37;22.80;99.90
45549;DHT22;31270;48.328;10.096;2023-05-07T14:41:03;22.70;99.90
45549;DHT22;31270;48.328;10.096;2023-05-07T14:43:29;22.40;99.90
45549;DHT22;31270;48.328;10.096;2023-05-07T14:45:54;22.30;99.90
45549;DHT22;31270;48.328;10.096;2023-05-07T14:48:20;22.20;99.90
45549;DHT22;31270;48.328;10.096;2023-05-07T14:50:47;21.90;99.90
45549;DHT22;31270;48.328;10.096;2023-05-07T14:53:13;22.00;99.90
45549;DHT22;31270;48.328;10.096;2023-05-07T14:55:39;21.80;99.90
45549;DHT22;31270;48.328;10.096;2023-05-07T14:58:05;21.70;99.90
45549;DHT22;31270;48.328;10.096;2023-05-07T15:00:30;21.70;99.90
45549;DHT22;31270;48.328;10.096;2023-05-07T15:03:05;21.80;99.90
45549;DHT22;31270;48.328;10.096;2023-05-07T15:05:32;21.80;99.90
45549;DHT22;31270;48.328;10.096;2023-05-07T15:07:58;21.70;99.90
45549;DHT22;31270;48.328;10.096;2023-05-07T15:10:24;21.60;99.90
45549;DHT22;31270;48.328;10.096;2023-05-07T15:12:51;21.60;99.90
45549;DHT22;31270;48.328;10.096;2023-05-07T15:15:17;21.40;99.90
45549;DHT22;31270;48.328;10.096;2023-05-07T15:17:42;21.30;99.90
45549;DHT22;31270;48.328;10.096;2023-05-07T15:20:08;21.30;99.90
45549;DHT22;31270;48.328;10.096;2023-05-07T15:22:36;21.20;99.90
45549;DHT22;31270;48.328;10.096;2023-05-07T15:25:03;21.20;99.90
45549;DHT22;31270;48.328;10.096;2023-05-07T15:27:30;21.20;99.90